Time;durP1;ratioP1;P1;durP2;ratioP2;P2;SDS_P1;SDS_P2;PMS_P1;PMS_P2;Temp;Humidity;BMP_temperature;BMP_pressure;BME280_temperature;BME280_humidity;BME280_pressure;Samples;Min_cycle;Max_cycle;Signal;HPM_P1;HPM_P2
2023/01/08 00:00:44;;;;;;;6.80;6.17;;;;;;;5.68;100.00;97580.81;5036184;28;20221;-71
2023/01/08 00:03:11;;;;;;;7.93;6.33;;;;;;;5.66;100.00;97582.03;5036588;28;20205;-71
2023/01/08 00:05:38;;;;;;;6.40;5.80;;;;;;;5.59;100.00;97582.00;5036068;28;20687;-71
2023/01/08 00:08:07;;;;;;;8.97;6.97;;;;;;;5.60;100.00;97565.16;5036414;28;20305;-71
2023/01/08 00:10:34;;;;;;;9.00;7.30;;;;;;;5.61;100.00;97555.44;5036095;28;20206;-71
2023/01/08 00:13:00;;;;;;;7.53;6.73;;;;;;;5.65;100.00;97556.66;5036020;28;20226;-71
2023/01/08 00:15:28;;;;;;;7.80;7.00;;;;;;;5.56;100.00;97563.16;5036335;28;20327;-71
2023/01/08 00:17:55;;;;;;;8.37;7.47;;;;;;;5.58;100.00;97555.84;5036240;28;20217;-71
2023/01/08 00:20:22;;;;;;;8.10;6.93;;;;;;;5.52;100.00;97540.81;5035919;28;20543;-71
2023/01/08 00:22:49;;;;;;;8.43;7.33;;;;;;;5.52;100.00;97559.28;5035806;28;20241;-71
2023/01/08 00:25:16;;;;;;;7.67;6.90;;;;;;;5.45;100.00;97555.78;5036053;28;20229;-71
2023/01/08 00:27:42;;;;;;;9.93;7.73;;;;;;;5.39;100.00;97553.97;5035769;28;20549;-71
2023/01/08 00:30:09;;;;;;;7.83;7.03;;;;;;;5.31;100.00;97559.41;5036074;28;20206;-71
2023/01/08 00:32:36;;;;;;;8.77;7.20;;;;;;;5.34;100.00;97551.91;5035942;28;20236;-71
2023/01/08 00:35:03;;;;;;;7.90;7.17;;;;;;;5.30;100.00;97548.03;5035609;28;20202;-71
2023/01/08 00:37:30;;;;;;;7.97;7.17;;;;;;;5.25;100.00;97547.81;5035867;28;20285;-72
2023/01/08 00:39:56;;;;;;;7.93;7.13;;;;;;;5.34;100.00;97533.47;5036158;28;20300;-71
2023/01/08 00:42:23;;;;;;;8.67;7.50;;;;;;;5.45;100.00;97524.16;5035826;28;20560;-71
2023/01/08 00:44:49;;;;;;;8.20;7.40;;;;;;;5.31;100.00;97510.16;5035713;28;20210;-71
2023/01/08 00:47:15;;;;;;;8.03;7.23;;;;;;;5.41;100.00;97513.22;5035816;28;20202;-71
2023/01/08 00:49:42;;;;;;;9.13;7.60;;;;;;;5.59;100.00;97502.91;5035638;28;20212;-71
2023/01/08 00:52:08;;;;;;;8.23;6.90;;;;;;;5.57;100.00;97502.28;5035289;28;20226;-71
2023/01/08 00:54:35;;;;;;;8.47;7.40;;;;;;;5.60;100.00;97511.59;5035601;28;20210;-71
2023/01/08 00:57:01;;;;;;;10.43;7.23;;;;;;;5.58;100.00;97508.38;5035382;28;20212;-71
2023/01/08 00:59:27;;;;;;;8.17;6.90;;;;;;;5.53;100.00;97505.53;5035164;28;20665;-71
2023/01/08 01:01:54;;;;;;;7.67;6.87;;;;;;;5.49;100.00;97512.22;5035142;28;20716;-71
2023/01/08 01:04:20;;;;;;;9.93;7.07;;;;;;;5.45;100.00;97509.16;5035135;28;20723;-71
2023/01/08 01:06:47;;;;;;;7.43;6.63;;;;;;;5.46;100.00;97502.88;5034991;28;20308;-71
2023/01/08 01:09:13;;;;;;;7.50;6.43;;;;;;;5.40;100.00;97493.16;5035292;28;20201;-71
2023/01/08 01:11:40;;;;;;;8.43;6.60;;;;;;;5.48;100.00;97481.59;5035104;28;20237;-71
2023/01/08 01:14:06;;;;;;;7.60;6.87;;;;;;;5.42;100.00;97498.22;5034962;28;20566;-71
2023/01/08 01:16:32;;;;;;;9.33;7.23;;;;;;;5.32;100.00;97489.88;5035193;28;20202;-71
2023/01/08 01:18:59;;;;;;;8.33;7.30;;;;;;;5.46;100.00;97488.88;5035075;28;20210;-71
2023/01/08 01:21:29;;;;;;;7.63;6.83;;;;;;;5.45;100.00;97492.53;5034843;28;20263;-71
2023/01/08 01:24:14;;;;;;;11.50;7.03;;;;;;;5.44;100.00;97488.28;5035125;28;20198;-71
2023/01/08 01:26:41;;;;;;;7.70;6.90;;;;;;;5.37;100.00;97497.97;5034631;28;20213;-71
2023/01/08 01:29:07;;;;;;;8.63;6.80;;;;;;;5.37;100.00;97504.09;5034988;28;20210;-71
2023/01/08 01:31:33;;;;;;;8.73;6.77;;;;;;;5.20;100.00;97494.13;5034847;28;20232;-71
2023/01/08 01:34:00;;;;;;;9.87;7.50;;;;;;;5.23;100.00;97477.88;5034912;28;20221;-71
2023/01/08 01:36:27;;;;;;;7.83;7.13;;;;;;;5.32;100.00;97484.59;5034857;28;20609;-71
2023/01/08 01:38:56;;;;;;;7.23;6.50;;;;;;;5.33;100.00;97489.66;5034824;28;20228;-71
2023/01/08 01:41:52;;;;;;;7.63;6.83;;;;;;;5.43;100.00;97497.22;5034711;28;20226;-71
2023/01/08 01:44:41;;;;;;;8.40;7.03;;;;;;;5.48;100.00;97510.59;5025868;28;20612;-71
2023/01/08 01:47:25;;;;;;;7.67;6.60;;;;;;;5.48;100.00;97494.78;5034623;28;20276;-71
2023/01/08 01:49:59;;;;;;;7.50;6.73;;;;;;;5.44;100.00;97512.81;5034638;28;20197;-71
2023/01/08 01:52:27;;;;;;;7.57;6.77;;;;;;;5.42;100.00;97503.50;5034300;28;20592;-71
2023/01/08 01:54:54;;;;;;;8.73;7.13;;;;;;;5.46;100.00;97499.41;5034205;28;20812;-71
2023/01/08 01:57:21;;;;;;;7.87;6.87;;;;;;;5.44;100.00;97502.28;5034412;28;20202;-71
2023/01/08 01:59:48;;;;;;;8.10;7.23;;;;;;;5.45;100.00;97492.53;5034374;28;20202;-71
2023/01/08 02:02:15;;;;;;;8.43;7.63;;;;;;;5.50;100.00;97495.38;5034343;28;20229;-71
2023/01/08 02:04:41;;;;;;;9.20;6.93;;;;;;;5.41;100.00;97491.31;5034032;28;20210;-71
2023/01/08 02:07:36;;;;;;;8.00;7.20;;;;;;;5.48;100.00;97477.13;5034708;28;20229;-71
2023/01/08 02:10:17;;;;;;;8.50;6.67;;;;;;;5.49;100.00;97489.31;5033891;28;20689;-71
2023/01/08 02:12:59;;;;;;;7.87;7.07;;;;;;;5.62;100.00;97480.59;5034173;28;20583;-71
2023/01/08 02:15:34;;;;;;;9.70;7.67;;;;;;;5.56;100.00;97478.78;5034699;28;20189;-71
2023/01/08 02:18:09;;;;;;;7.90;7.10;;;;;;;5.59;100.00;97478.34;5034148;28;20189;-71
2023/01/08 02:20:39;;;;;;;9.47;7.07;;;;;;;5.59;100.00;97475.72;5034044;28;20208;-71
2023/01/08 02:23:23;;;;;;;9.20;8.20;;;;;;;5.56;100.00;97463.75;5033732;28;20221;-71
2023/01/08 02:26:27;;;;;;;9.17;7.90;;;;;;;5.60;100.00;97464.16;5033934;28;20598;-71
2023/01/08 02:29:11;;;;;;;7.43;6.73;;;;;;;5.63;100.00;97455.84;5033607;28;20691;-71
2023/01/08 02:31:40;;;;;;;8.67;7.20;;;;;;;5.65;100.00;97461.75;5033867;28;20308;-71
2023/01/08 02:34:07;;;;;;;8.70;6.90;;;;;;;5.64;100.00;97454.81;5033533;28;20212;-71
2023/01/08 02:36:55;;;;;;;8.00;7.20;;;;;;;5.63;100.00;97438.22;5033808;28;20288;-71
2023/01/08 02:39:50;;;;;;;8.47;7.10;;;;;;;5.62;100.00;97439.22;5033773;28;20194;-71
2023/01/08 02:42:46;;;;;;;8.73;7.87;;;;;;;5.72;100.00;97428.25;5024849;28;20229;-71
2023/01/08 02:45:31;;;;;;;8.90;6.47;;;;;;;5.68;100.00;97434.94;5030481;28;20205;-71
2023/01/08 02:48:05;;;;;;;9.33;7.23;;;;;;;5.67;100.00;97417.50;5033495;28;20186;-71
2023/01/08 02:50:37;;;;;;;7.77;6.47;;;;;;;5.63;100.00;97411.84;5034074;28;20527;-71
2023/01/08 02:53:12;;;;;;;7.60;6.47;;;;;;;5.64;100.00;97404.72;5033474;28;20230;-71
2023/01/08 02:55:41;;;;;;;7.63;6.90;;;;;;;5.68;100.00;97406.78;5032924;28;20197;-71
2023/01/08 02:58:08;;;;;;;7.50;6.80;;;;;;;5.66;100.00;97406.16;5033475;28;20206;-71
2023/01/08 03:00:35;;;;;;;9.13;6.70;;;;;;;5.66;100.00;97397.44;5033179;28;20244;-71
2023/01/08 03:03:09;;;;;;;7.77;6.93;;;;;;;5.71;100.00;97395.00;5033399;28;20587;-71
2023/01/08 03:05:37;;;;;;;7.43;6.60;;;;;;;5.73;100.00;97400.88;5032274;28;20220;-71
2023/01/08 03:08:04;;;;;;;7.37;6.67;;;;;;;5.75;100.00;97399.66;5033121;28;20661;-71
2023/01/08 03:10:32;;;;;;;8.40;6.60;;;;;;;5.72;100.00;97394.81;5032185;28;20202;-71
2023/01/08 03:13:07;;;;;;;8.33;6.33;;;;;;;5.75;100.00;97389.09;5033361;28;20564;-71
2023/01/08 03:15:47;;;;;;;7.13;6.40;;;;;;;5.79;100.00;97397.44;5033395;28;20198;-71
2023/01/08 03:18:19;;;;;;;7.03;6.33;;;;;;;5.81;100.00;97398.06;5032255;28;20225;-71
2023/01/08 03:20:47;;;;;;;7.20;6.07;;;;;;;5.81;100.00;97390.16;5033272;28;20236;-71
2023/01/08 03:23:17;;;;;;;8.03;6.63;;;;;;;5.78;100.00;97386.06;5032936;28;20218;-71
2023/01/08 03:25:46;;;;;;;7.57;6.57;;;;;;;5.77;100.00;97386.25;5032471;28;20226;-71
2023/01/08 03:28:22;;;;;;;7.70;6.90;;;;;;;5.78;100.00;97378.16;5033053;28;20213;-71
2023/01/08 03:30:50;;;;;;;9.00;7.03;;;;;;;5.77;100.00;97381.00;5033234;28;20193;-71
2023/01/08 03:33:17;;;;;;;7.50;6.80;;;;;;;5.71;100.00;97366.00;5033187;28;20210;-71
2023/01/08 03:35:48;;;;;;;8.37;6.80;;;;;;;5.73;100.00;97370.03;5033179;28;20201;-71
2023/01/08 03:38:29;;;;;;;7.60;6.57;;;;;;;5.79;100.00;97361.31;5032063;28;20199;-71
2023/01/08 03:41:05;;;;;;;7.07;6.37;;;;;;;5.81;100.00;97361.97;5031921;28;20190;-71
2023/01/08 03:43:31;;;;;;;8.30;6.77;;;;;;;5.79;100.00;97358.66;5031920;28;20190;-71
2023/01/08 03:46:01;;;;;;;7.73;6.90;;;;;;;5.81;100.00;97354.03;5032963;28;20232;-71
2023/01/08 03:48:30;;;;;;;7.03;6.33;;;;;;;5.90;100.00;97358.09;5033894;28;20210;-71
2023/01/08 03:50:56;;;;;;;9.83;6.63;;;;;;;5.93;100.00;97356.84;5032726;28;20206;-71
2023/01/08 03:53:22;;;;;;;7.03;6.27;;;;;;;5.99;100.00;97350.75;5032791;28;20208;-71
2023/01/08 03:55:49;;;;;;;6.73;6.07;;;;;;;6.01;100.00;97356.66;5032954;28;20202;-71
2023/01/08 03:58:15;;;;;;;6.90;6.20;;;;;;;6.00;100.00;97355.81;5032993;28;20206;-71
2023/01/08 04:00:42;;;;;;;7.17;6.47;;;;;;;5.99;100.00;97351.56;5032813;28;20206;-71
2023/01/08 04:03:08;;;;;;;7.43;6.67;;;;;;;5.99;100.00;97348.13;5032887;28;20206;-71
2023/01/08 04:05:35;;;;;;;7.80;6.17;;;;;;;6.02;100.00;97345.84;5033745;28;20202;-71
2023/01/08 04:08:01;;;;;;;7.20;6.50;;;;;;;6.00;100.00;97347.91;5036287;28;20209;-71
2023/01/08 04:10:27;;;;;;;7.03;6.17;;;;;;;6.04;100.00;97346.47;5036377;28;20229;-71
2023/01/08 04:12:54;;;;;;;7.33;6.63;;;;;;;6.00;100.00;97334.72;5036245;28;20232;-71
2023/01/08 04:15:20;;;;;;;7.03;6.03;;;;;;;5.98;100.00;97341.22;5036784;28;20230;-71
2023/01/08 04:17:47;;;;;;;6.90;6.20;;;;;;;5.95;100.00;97336.34;5036181;28;20202;-71
2023/01/08 04:20:13;;;;;;;9.80;6.77;;;;;;;5.84;100.00;97329.88;5036180;28;20210;-71
2023/01/08 04:22:39;;;;;;;8.93;6.63;;;;;;;5.91;100.00;97335.13;5035780;28;20233;-71
2023/01/08 04:25:06;;;;;;;8.83;6.13;;;;;;;5.95;100.00;97336.34;5036995;28;20561;-71
2023/01/08 04:27:33;;;;;;;7.20;6.50;;;;;;;5.95;100.00;97337.16;5035778;28;20229;-71
2023/01/08 04:29:59;;;;;;;6.70;6.00;;;;;;;5.99;100.00;97342.84;5036194;28;20213;-71
2023/01/08 04:32:25;;;;;;;7.40;6.70;;;;;;;5.98;100.00;97342.00;5035987;28;20249;-71
2023/01/08 04:34:52;;;;;;;6.90;6.20;;;;;;;6.01;100.00;97336.34;5035570;28;20216;-71
2023/01/08 04:37:18;;;;;;;6.20;5.60;;;;;;;6.14;100.00;97351.31;5035913;28;20202;-71
2023/01/08 04:39:44;;;;;;;6.17;5.20;;;;;;;6.21;100.00;97346.81;5035377;28;20206;-70
2023/01/08 04:42:11;;;;;;;6.07;5.47;;;;;;;6.26;100.00;97347.84;5035283;28;20713;-71
2023/01/08 04:44:37;;;;;;;6.93;6.20;;;;;;;6.27;100.00;97340.72;5035450;28;20229;-71
2023/01/08 04:47:04;;;;;;;5.90;5.20;;;;;;;6.30;100.00;97353.50;5035175;28;20316;-71
2023/01/08 04:49:30;;;;;;;5.47;4.97;;;;;;;6.35;100.00;97353.69;5035497;28;20213;-71
2023/01/08 04:51:56;;;;;;;4.97;3.93;;;;;;;6.50;100.00;97356.84;5035242;28;20233;-71
2023/01/08 04:54:23;;;;;;;4.20;3.77;;;;;;;6.60;100.00;97355.38;5035324;28;20216;-71
2023/01/08 04:56:52;;;;;;;4.23;3.47;;;;;;;6.72;100.00;97352.88;5035221;28;20213;-71
2023/01/08 04:59:19;;;;;;;4.00;2.73;;;;;;;7.16;99.53;97358.09;5035094;28;20210;-71
2023/01/08 05:01:45;;;;;;;2.30;2.10;;;;;;;7.85;93.29;97350.78;5034987;28;20225;-71
2023/01/08 05:04:12;;;;;;;3.37;2.53;;;;;;;8.39;88.76;97350.84;5035343;28;20288;-71
2023/01/08 05:06:38;;;;;;;4.40;2.27;;;;;;;8.47;89.09;97354.00;5034847;28;20229;-71
2023/01/08 05:09:04;;;;;;;2.57;2.30;;;;;;;8.65;87.41;97356.63;5035158;28;20571;-71
2023/01/08 05:11:31;;;;;;;2.40;2.20;;;;;;;8.58;87.76;97358.56;5034932;28;20236;-71
2023/01/08 05:13:57;;;;;;;2.20;2.00;;;;;;;8.82;87.02;97349.66;5035040;28;20210;-71
2023/01/08 05:16:24;;;;;;;2.10;1.90;;;;;;;8.72;88.32;97369.78;5034531;28;20206;-71
2023/01/08 05:18:50;;;;;;;2.33;1.80;;;;;;;8.96;87.70;97371.50;5034589;28;20205;-71
2023/01/08 05:21:17;;;;;;;1.97;1.70;;;;;;;8.97;88.49;97368.63;5034921;28;20229;-70
2023/01/08 05:23:47;;;;;;;1.67;1.57;;;;;;;9.07;87.51;97370.72;5034753;28;20626;-71
2023/01/08 05:26:14;;;;;;;1.40;1.30;;;;;;;9.05;88.11;97367.50;5035059;28;20221;-71
2023/01/08 05:28:41;;;;;;;2.80;1.40;;;;;;;9.05;88.32;97357.69;5034940;28;20568;-71
2023/01/08 05:31:07;;;;;;;1.40;1.30;;;;;;;9.08;88.64;97361.75;5034857;28;20226;-71
2023/01/08 05:33:33;;;;;;;1.70;1.13;;;;;;;9.07;89.13;97358.28;5034624;28;20291;-71
2023/01/08 05:36:00;;;;;;;1.17;1.17;;;;;;;9.09;89.09;97356.22;5034516;28;20213;-71
2023/01/08 05:38:26;;;;;;;2.47;1.40;;;;;;;8.99;91.61;97348.00;5034424;28;20665;-71
2023/01/08 05:40:53;;;;;;;2.47;1.50;;;;;;;8.96;92.49;97350.31;5034613;28;20213;-71
2023/01/08 05:43:19;;;;;;;1.30;1.20;;;;;;;9.10;91.01;97349.06;5034517;28;20205;-71
2023/01/08 05:45:46;;;;;;;2.80;1.30;;;;;;;9.03;92.43;97351.81;5034284;28;20685;-71
2023/01/08 05:48:12;;;;;;;2.10;1.10;;;;;;;9.03;93.50;97343.06;5034488;28;20589;-71
2023/01/08 05:50:38;;;;;;;1.90;1.20;;;;;;;8.93;95.86;97354.22;5034441;28;20214;-71
2023/01/08 05:53:08;;;;;;;1.57;1.40;;;;;;;8.93;97.29;97354.22;5034534;28;20206;-71
2023/01/08 05:55:35;;;;;;;1.47;1.10;;;;;;;8.91;98.00;97360.78;5034411;28;20217;-71
2023/01/08 05:58:05;;;;;;;1.60;1.20;;;;;;;8.78;100.00;97355.66;5034435;28;20198;-70
2023/01/08 06:00:33;;;;;;;1.63;1.20;;;;;;;8.72;100.00;97361.81;5034274;28;20202;-71
2023/01/08 06:02:59;;;;;;;0.97;0.97;;;;;;;8.75;100.00;97356.09;5034138;28;20230;-71
2023/01/08 06:05:26;;;;;;;1.33;1.00;;;;;;;8.55;100.00;97361.63;5034179;28;20214;-71
2023/01/08 06:07:53;;;;;;;1.70;1.27;;;;;;;8.41;100.00;97354.88;5034067;28;20229;-71
2023/01/08 06:10:19;;;;;;;1.43;1.00;;;;;;;8.49;100.00;97349.28;5034129;28;20228;-70
2023/01/08 06:12:45;;;;;;;1.20;1.00;;;;;;;8.53;100.00;97355.78;5033996;28;20233;-71
2023/01/08 06:15:12;;;;;;;1.87;1.03;;;;;;;8.40;100.00;97355.09;5034042;28;20213;-71
2023/01/08 06:17:38;;;;;;;1.00;0.73;;;;;;;8.43;100.00;97346.72;5034062;28;20202;-71
2023/01/08 06:20:06;;;;;;;2.83;1.00;;;;;;;8.34;100.00;97340.09;5033740;28;20221;-71
2023/01/08 06:22:33;;;;;;;1.30;0.97;;;;;;;8.51;100.00;97339.28;5033659;28;20268;-71
2023/01/08 06:24:59;;;;;;;1.50;0.60;;;;;;;8.53;100.00;97342.53;5034014;28;20209;-71
2023/01/08 06:27:26;;;;;;;0.80;0.60;;;;;;;8.47;100.00;97332.78;5033617;28;20233;-71
2023/01/08 06:29:52;;;;;;;0.87;0.87;;;;;;;8.61;100.00;97344.88;5033820;28;20228;-71
2023/01/08 06:32:19;;;;;;;0.70;0.70;;;;;;;8.55;100.00;97335.16;5033890;28;20232;-71
2023/01/08 06:34:45;;;;;;;1.00;0.80;;;;;;;8.61;100.00;97323.69;5033796;28;20206;-71
2023/01/08 06:37:11;;;;;;;1.40;0.93;;;;;;;8.55;100.00;97329.06;5033749;28;20209;-71
2023/01/08 06:39:38;;;;;;;1.17;0.87;;;;;;;8.67;100.00;97324.59;5033284;28;20213;-71
2023/01/08 06:42:04;;;;;;;1.00;0.90;;;;;;;8.72;100.00;97304.34;5032981;28;20589;-71
2023/01/08 06:44:30;;;;;;;0.60;0.60;;;;;;;8.78;100.00;97305.31;5033511;28;20212;-71
2023/01/08 06:46:57;;;;;;;1.33;0.70;;;;;;;8.63;100.00;97318.13;5033508;28;20222;-71
2023/01/08 06:49:23;;;;;;;0.80;0.80;;;;;;;8.60;100.00;97322.03;5033335;28;20206;-71
2023/01/08 06:51:50;;;;;;;0.80;0.80;;;;;;;8.56;100.00;97331.47;5033180;28;20713;-71
2023/01/08 06:54:16;;;;;;;0.83;0.80;;;;;;;8.50;100.00;97326.25;5033330;28;20683;-71
2023/01/08 06:56:43;;;;;;;0.67;0.67;;;;;;;8.68;100.00;97329.69;5033425;28;20208;-71
2023/01/08 06:59:09;;;;;;;1.17;0.97;;;;;;;8.61;100.00;97323.69;5034001;28;20206;-71
2023/01/08 07:01:35;;;;;;;0.67;0.67;;;;;;;8.64;100.00;97311.81;5033134;28;20226;-71
2023/01/08 07:04:02;;;;;;;0.90;0.80;;;;;;;8.67;100.00;97322.78;5033097;28;20668;-71
2023/01/08 07:06:28;;;;;;;0.73;0.73;;;;;;;8.63;100.00;97320.78;5032926;28;20206;-71
2023/01/08 07:08:54;;;;;;;1.27;0.80;;;;;;;8.64;100.00;97317.13;5033028;28;20665;-71
2023/01/08 07:11:21;;;;;;;0.87;0.87;;;;;;;8.67;100.00;97319.31;5032935;28;20236;-71
2023/01/08 07:13:47;;;;;;;0.60;0.60;;;;;;;8.67;100.00;97314.81;5033015;28;20670;-71
2023/01/08 07:16:14;;;;;;;1.47;0.70;;;;;;;8.65;100.00;97327.47;5033014;28;20692;-71
2023/01/08 07:18:41;;;;;;;1.10;0.80;;;;;;;8.61;100.00;97326.31;5033325;28;20256;-71
2023/01/08 07:21:08;;;;;;;2.03;0.90;;;;;;;8.69;100.00;97322.56;5032928;28;20308;-71
2023/01/08 07:23:35;;;;;;;2.80;1.00;;;;;;;8.64;100.00;97333.81;5033345;28;20194;-71
2023/01/08 07:26:06;;;;;;;0.90;0.80;;;;;;;8.53;100.00;97325.81;5033023;28;20216;-71
2023/01/08 07:28:32;;;;;;;1.80;1.00;;;;;;;8.54;100.00;97332.72;5033259;28;20210;-71
2023/01/08 07:31:03;;;;;;;1.60;0.73;;;;;;;8.54;100.00;97328.25;5033201;28;20209;-71
2023/01/08 07:33:29;;;;;;;2.33;0.80;;;;;;;8.49;100.00;97330.75;5033298;28;20194;-71
2023/01/08 07:35:57;;;;;;;1.23;0.90;;;;;;;8.38;100.00;97333.34;5032815;28;20260;-71
2023/01/08 07:38:23;;;;;;;0.70;0.70;;;;;;;8.24;100.00;97331.88;5033051;28;20204;-71
2023/01/08 07:40:49;;;;;;;0.80;0.80;;;;;;;8.34;100.00;97327.69;5034439;28;20209;-71
2023/01/08 07:43:16;;;;;;;1.33;0.70;;;;;;;8.30;100.00;97337.09;5036882;28;20206;-71
2023/01/08 07:45:42;;;;;;;0.70;0.70;;;;;;;8.33;100.00;97338.50;5036546;28;20206;-71
2023/01/08 07:48:14;;;;;;;0.87;0.80;;;;;;;8.33;100.00;97333.19;5036858;28;20233;-71
2023/01/08 07:50:41;;;;;;;1.23;0.83;;;;;;;8.23;100.00;97328.41;5036926;28;20186;-72
2023/01/08 07:53:08;;;;;;;0.97;0.83;;;;;;;8.20;100.00;97335.97;5036833;28;20205;-71
2023/01/08 07:55:34;;;;;;;1.10;0.80;;;;;;;8.17;100.00;97334.56;5036474;28;20213;-71
2023/01/08 07:58:00;;;;;;;0.70;0.70;;;;;;;8.18;100.00;97332.72;5036428;28;20679;-71
2023/01/08 08:00:27;;;;;;;0.73;0.73;;;;;;;8.28;100.00;97330.41;5036654;28;20213;-71
2023/01/08 08:02:53;;;;;;;0.80;0.80;;;;;;;8.26;100.00;97324.50;5036712;28;20232;-71
2023/01/08 08:05:20;;;;;;;0.70;0.70;;;;;;;8.21;100.00;97327.03;5036033;28;20208;-71
2023/01/08 08:07:46;;;;;;;1.33;0.60;;;;;;;8.32;100.00;97328.94;5036022;28;20225;-71
2023/01/08 08:10:12;;;;;;;0.73;0.60;;;;;;;8.32;100.00;97328.94;5036604;28;20201;-71
2023/01/08 08:12:39;;;;;;;1.43;0.80;;;;;;;8.29;100.00;97330.16;5036236;28;20233;-71
2023/01/08 08:15:06;;;;;;;0.70;0.70;;;;;;;8.24;100.00;97334.53;5036345;28;20206;-71
2023/01/08 08:17:32;;;;;;;0.70;0.70;;;;;;;8.18;100.00;97317.66;5036039;28;20217;-71
2023/01/08 08:19:58;;;;;;;0.70;0.70;;;;;;;8.21;100.00;97337.63;5036759;28;20216;-70
2023/01/08 08:22:25;;;;;;;0.70;0.70;;;;;;;8.22;100.00;97326.81;5036044;28;20234;-71
2023/01/08 08:24:51;;;;;;;1.00;0.90;;;;;;;8.21;100.00;97329.66;5036091;28;20232;-71
2023/01/08 08:27:18;;;;;;;1.27;1.00;;;;;;;8.24;100.00;97318.66;5035959;28;20226;-71
2023/01/08 08:29:44;;;;;;;1.03;0.90;;;;;;;8.30;100.00;97320.41;5035819;28;20213;-71
2023/01/08 08:32:10;;;;;;;1.23;0.90;;;;;;;8.19;100.00;97313.19;5036024;28;20230;-71
2023/01/08 08:34:37;;;;;;;0.90;0.80;;;;;;;8.16;100.00;97310.97;5036020;28;20232;-71
2023/01/08 08:37:03;;;;;;;1.07;0.80;;;;;;;8.27;100.00;97312.88;5035941;28;20205;-71
2023/01/08 08:39:29;;;;;;;1.60;1.07;;;;;;;8.23;100.00;97309.09;5035578;28;20661;-71
2023/01/08 08:41:56;;;;;;;1.33;0.80;;;;;;;8.27;100.00;97316.34;5035798;28;20336;-70
2023/01/08 08:44:22;;;;;;;1.47;0.70;;;;;;;8.27;100.00;97312.88;5035641;28;20210;-70
2023/01/08 08:46:48;;;;;;;0.97;0.87;;;;;;;8.19;100.00;97300.72;5035663;28;20301;-70
2023/01/08 08:49:15;;;;;;;2.00;0.93;;;;;;;8.20;100.00;97309.50;5035726;28;20293;-70
2023/01/08 08:51:41;;;;;;;0.73;0.70;;;;;;;8.18;100.00;97300.94;5034612;28;20344;-70
2023/01/08 08:54:07;;;;;;;1.60;1.00;;;;;;;8.22;100.00;97308.28;5035907;28;20212;-70
2023/01/08 08:56:34;;;;;;;1.23;0.83;;;;;;;8.18;100.00;97308.88;5035251;28;20292;-70
2023/01/08 08:59:00;;;;;;;1.77;0.93;;;;;;;8.23;100.00;97294.00;5035220;28;20562;-70
2023/01/08 09:01:26;;;;;;;1.30;1.00;;;;;;;8.29;100.00;97298.38;5035393;28;20230;-70
2023/01/08 09:03:53;;;;;;;0.90;0.90;;;;;;;8.20;100.00;97281.19;5035308;28;20213;-70
2023/01/08 09:06:19;;;;;;;0.80;0.80;;;;;;;8.21;100.00;97293.44;5035293;28;20206;-70
2023/01/08 09:08:46;;;;;;;1.00;0.90;;;;;;;8.32;100.00;97292.66;5034731;28;20715;-71
2023/01/08 09:11:12;;;;;;;0.90;0.90;;;;;;;8.29;100.00;97298.38;5035148;28;20226;-70
2023/01/08 09:13:39;;;;;;;1.17;1.00;;;;;;;8.29;100.00;97300.25;5035238;28;20213;-70
2023/01/08 09:16:05;;;;;;;1.10;1.00;;;;;;;8.31;100.00;97295.53;5034899;28;20210;-70
2023/01/08 09:18:32;;;;;;;1.03;0.90;;;;;;;8.35;100.00;97289.56;5035602;28;20210;-70
2023/01/08 09:20:58;;;;;;;1.53;0.70;;;;;;;8.37;100.00;97292.78;5034877;28;20572;-70
2023/01/08 09:23:24;;;;;;;1.03;0.93;;;;;;;8.34;100.00;97303.84;5034799;28;20186;-70
2023/01/08 09:25:59;;;;;;;1.33;1.00;;;;;;;8.47;100.00;97302.88;5034996;28;20205;-70
2023/01/08 09:28:25;;;;;;;2.00;1.13;;;;;;;8.44;100.00;97300.66;5034853;28;20216;-70
2023/01/08 09:30:52;;;;;;;1.07;0.90;;;;;;;8.44;100.00;97306.78;5034585;28;20210;-70
2023/01/08 09:33:18;;;;;;;0.97;0.90;;;;;;;8.45;100.00;97296.97;5034817;28;20210;-70
2023/01/08 09:35:45;;;;;;;1.53;1.20;;;;;;;8.57;100.00;97295.19;5034461;28;20670;-70
2023/01/08 09:38:11;;;;;;;1.07;0.97;;;;;;;8.60;100.00;97292.91;5034642;28;20201;-70
2023/01/08 09:40:42;;;;;;;1.00;0.90;;;;;;;8.66;100.00;97309.75;5034175;28;20242;-70
2023/01/08 09:43:17;;;;;;;1.07;0.90;;;;;;;8.69;100.00;97296.06;5034514;28;20194;-70
2023/01/08 09:45:49;;;;;;;1.00;1.00;;;;;;;8.66;100.00;97301.78;5034462;28;20228;-70
2023/01/08 09:48:18;;;;;;;1.10;0.90;;;;;;;8.65;100.00;97298.31;5032589;28;20669;-70
2023/01/08 09:50:44;;;;;;;1.17;0.80;;;;;;;8.62;100.00;97313.88;5034492;28;20210;-70
2023/01/08 09:53:16;;;;;;;1.40;0.80;;;;;;;8.64;100.00;97296.72;5034517;28;20203;-70
2023/01/08 09:55:44;;;;;;;1.30;0.90;;;;;;;8.77;100.00;97298.38;5034286;28;20202;-70
2023/01/08 09:58:24;;;;;;;1.00;0.87;;;;;;;8.72;100.00;97292.94;5034923;28;20248;-70
2023/01/08 10:00:51;;;;;;;1.73;0.90;;;;;;;8.70;100.00;97298.47;5017422;28;20194;-70
2023/01/08 10:03:18;;;;;;;1.53;0.90;;;;;;;8.74;100.00;97299.63;5033611;28;20202;-70
2023/01/08 10:05:44;;;;;;;1.13;1.03;;;;;;;8.84;100.00;97301.75;5033930;28;20684;-70
2023/01/08 10:08:14;;;;;;;0.80;0.80;;;;;;;8.82;100.00;97306.47;5033903;28;20696;-70
2023/01/08 10:10:41;;;;;;;0.80;0.80;;;;;;;8.84;100.00;97320.28;5034092;28;20212;-70
2023/01/08 10:13:11;;;;;;;0.90;0.90;;;;;;;8.88;100.00;97300.25;5033792;28;20256;-71
2023/01/08 10:15:38;;;;;;;2.00;1.00;;;;;;;8.92;100.00;97304.06;5034086;28;20212;-70
2023/01/08 10:18:07;;;;;;;0.80;0.67;;;;;;;8.98;100.00;97308.47;5032852;28;20299;-70
2023/01/08 10:20:34;;;;;;;0.97;0.87;;;;;;;8.95;100.00;97304.41;5034174;28;20555;-70
2023/01/08 10:23:15;;;;;;;1.97;0.90;;;;;;;9.05;100.00;97309.97;5033509;28;20244;-70
2023/01/08 10:25:57;;;;;;;1.83;1.00;;;;;;;9.13;100.00;97300.88;5033560;28;20232;-70
2023/01/08 10:28:29;;;;;;;1.17;1.07;;;;;;;9.12;100.00;97294.78;5033748;28;20229;-70
2023/01/08 10:31:08;;;;;;;1.30;1.00;;;;;;;9.19;100.00;97300.00;5033739;28;20210;-70
2023/01/08 10:33:44;;;;;;;1.00;0.97;;;;;;;9.22;100.00;97292.38;5033433;28;20590;-70
2023/01/08 10:36:15;;;;;;;1.10;1.10;;;;;;;9.36;100.00;97285.00;5033650;28;20551;-70
2023/01/08 10:38:50;;;;;;;1.50;1.17;;;;;;;9.27;100.00;97297.78;5032543;28;20597;-70
2023/01/08 10:41:17;;;;;;;1.30;1.20;;;;;;;9.31;100.00;97274.28;5032008;28;20228;-71
2023/01/08 10:43:53;;;;;;;1.27;0.97;;;;;;;9.33;100.00;97277.53;5033280;28;20212;-70
2023/01/08 10:46:24;;;;;;;1.03;0.87;;;;;;;9.32;100.00;97267.94;5031949;28;20190;-70
2023/01/08 10:48:53;;;;;;;2.30;1.20;;;;;;;9.30;100.00;97272.66;5033519;28;20210;-71
2023/01/08 10:51:24;;;;;;;1.47;1.10;;;;;;;9.30;100.00;97265.53;5033249;28;20233;-71
2023/01/08 10:53:53;;;;;;;1.07;0.93;;;;;;;9.35;100.00;97268.28;5033286;28;20289;-71
2023/01/08 10:56:21;;;;;;;0.87;0.87;;;;;;;9.35;100.00;97268.28;5033495;28;20209;-70
2023/01/08 10:58:48;;;;;;;1.00;0.90;;;;;;;9.37;100.00;97266.19;5033790;28;20214;-71
2023/01/08 11:01:19;;;;;;;1.00;0.90;;;;;;;9.44;100.00;97269.56;5033374;28;20268;-70
2023/01/08 11:03:53;;;;;;;0.70;0.70;;;;;;;9.53;100.00;97270.84;5034130;28;20209;-71
2023/01/08 11:06:26;;;;;;;1.40;0.80;;;;;;;9.58;100.00;97260.34;5033288;28;20196;-71
2023/01/08 11:09:12;;;;;;;0.70;0.70;;;;;;;9.67;100.00;97255.47;5032929;28;20237;-71
2023/01/08 11:11:38;;;;;;;0.60;0.60;;;;;;;9.68;100.00;97257.09;5032949;28;20225;-71
2023/01/08 11:14:21;;;;;;;0.60;0.60;;;;;;;9.83;98.91;97260.06;5033090;28;20202;-71
2023/01/08 11:16:48;;;;;;;0.70;0.70;;;;;;;9.84;99.61;97246.56;5036025;28;20555;-71
2023/01/08 11:19:35;;;;;;;0.90;0.80;;;;;;;9.87;98.70;97245.31;5035886;28;20229;-71
2023/01/08 11:22:23;;;;;;;0.70;0.70;;;;;;;9.90;97.78;97244.81;5036947;28;20249;-71
2023/01/08 11:24:51;;;;;;;0.60;0.60;;;;;;;9.89;97.29;97240.56;5036758;28;20194;-70
2023/01/08 11:27:36;;;;;;;0.60;0.60;;;;;;;9.90;97.06;97234.19;5036947;28;20230;-70
2023/01/08 11:30:12;;;;;;;0.83;0.50;;;;;;;9.91;95.24;97241.94;5037077;28;20565;-71
2023/01/08 11:33:03;;;;;;;0.67;0.67;;;;;;;9.89;95.71;97237.91;5036883;28;20229;-71
2023/01/08 11:35:36;;;;;;;1.60;0.67;;;;;;;9.94;95.45;97224.72;5036707;28;20194;-71
2023/01/08 11:38:03;;;;;;;0.70;0.70;;;;;;;9.99;97.87;97225.63;5036726;28;20190;-71
2023/01/08 11:40:51;;;;;;;0.57;0.57;;;;;;;9.99;95.54;97214.19;5036435;28;20209;-71
2023/01/08 11:43:43;;;;;;;0.50;0.50;;;;;;;10.02;94.86;97200.47;5036193;28;20209;-71